Home > Products > Valid Products > TAF

000
FTUS43 KTOP 231100
TAFTOP
TAF
KTOP 231120Z 2312/2412 19005KT P6SM OVC025
     FM231600 22007KT P6SM BKN025
     FM232300 19005KT P6SM SCT030=



000
FTUS43 KTOP 230800 AAA
TAFTOP
TAF AMD
KTOP 230828Z 2308/2406 15007KT 4SM -SHRA BR BKN040
     FM231100 19005KT P6SM OVC025
     FM231600 21007KT P6SM BKN025
     FM232200 19005KT P6SM SCT030=



000
FTUS43 KTOP 230500
TAFTOP
TAF
KTOP 230520Z 2306/2406 15007KT 6SM -SHRA BR SCT025 OVC070
     FM231000 19005KT P6SM OVC025
     FM231600 21007KT P6SM BKN025
     FM232200 19005KT P6SM SCT030=



000
FTUS43 KTOP 230200 AAA
TAFTOP
TAF AMD
KTOP 230201Z 2302/2324 15008KT P6SM FEW040 BKN200
     FM230500 16007KT 6SM -SHRA BR SCT025 OVC070
     FM231100 19005KT 6SM BR OVC017
     FM231700 21007KT P6SM BKN025
     FM232200 19005KT P6SM SCT030=



000
FTUS43 KTOP 230200 AAA
TAFTOP
TAF AMD
KTOP 230201Z 2302/2324 15008KT P6SM FEW040 BKN200
     FM230500 16007KT 6SM -SHRA BR SCT025 OVC070
     FM231100 19005KT 6SM BR OVC017
     FM231700 21007KT P6SM BKN025
     FM232200 19005KT P6SM SCT030=



000
FTUS43 KTOP 222300
TAFTOP
TAF
KTOP 222320Z 2300/2324 15008KT P6SM FEW040 BKN200
     FM230400 16007KT 6SM -SHRA BR OVC025
     FM231100 19005KT 6SM BR OVC017
     FM231700 21007KT P6SM BKN025
     FM232200 19005KT P6SM SCT030=



000
FTUS43 KTOP 221700
TAFTOP
TAF
KTOP 221736Z 2218/2318 16010KT P6SM FEW040
     FM230200 18007KT P6SM VCSH BKN035
      TEMPO 2304/2308 5SM -SHRA BR BKN025
     FM231100 21006KT P6SM BKN025=



000
FTUS43 KTOP 221700
TAFTOP
TAF
KTOP 221736Z 2218/2318 16010KT P6SM FEW040
     FM230200 18007KT P6SM VCSH BKN035
      TEMPO 2304/2308 5SM -SHRA BR BKN025
     FM231100 21006KT P6SM BKN025=



000
FTUS43 KTOP 221300 AAA
TAFTOP
TAF AMD
KTOP 221311Z 2213/2312 12006KT P6SM BKN040
     FM221600 16012KT P6SM SCT040
     FM230500 15007KT P6SM -SHRA BKN035=



000
FTUS43 KTOP 221100
TAFTOP
TAF
KTOP 221120Z 2212/2312 12006KT P6SM BKN040
     FM221600 16012KT P6SM SCT040
     FM230500 15007KT P6SM -SHRA BKN035=



000
FTUS43 KTOP 220500
TAFTOP
TAF
KTOP 220520Z 2206/2306 11005KT P6SM SKC
     FM220900 12006KT P6SM BKN035
     FM221600 16011KT P6SM SCT040
     FM230000 15007KT P6SM SCT040 BKN250 PROB30 2303/2306 -SHRA
      BKN035=



000
FTUS43 KTOP 220500
TAFTOP
TAF
KTOP 220520Z 2206/2306 11005KT P6SM SKC
     FM220900 12006KT P6SM BKN035
     FM221600 16011KT P6SM SCT040
     FM230000 15007KT P6SM SCT040 BKN250 PROB30 2303/2306 -SHRA
      BKN035=



000
FTUS43 KTOP 220100 AAA
TAFTOP
TAF AMD
KTOP 220155Z 2202/2224 10005KT P6SM SKC
     FM220900 12006KT P6SM BKN035
     FM221500 15011KT P6SM SCT040=



000
FTUS43 KTOP 220100 AAA
TAFTOP
TAF AMD
KTOP 220155Z 2202/2224 10005KT P6SM SKC
     FM220900 12006KT P6SM BKN035
     FM221500 15011KT P6SM SCT040=



000
FTUS43 KTOP 212300
TAFTOP
TAF
KTOP 212320Z 2200/2224 11005KT P6SM SKC
     FM220700 12006KT P6SM BKN035
     FM221500 15011KT P6SM SCT040=



000
FTUS43 KTOP 212300
TAFTOP
TAF
KTOP 212320Z 2200/2224 11005KT P6SM SKC
     FM220700 12006KT P6SM BKN035
     FM221500 15011KT P6SM SCT040=



000
FTUS43 KTOP 211700
TAFTOP
TAF
KTOP 211720Z 2118/2218 13005KT P6SM FEW250
     FM220900 12006KT P6SM BKN040=



000
FTUS43 KTOP 211100
TAFTOP
TAF
KTOP 211120Z 2112/2212 12001KT P6SM MIFG SKC
      TEMPO 2112/2114 3SM BR
     FM211400 13005KT P6SM FEW250=



000
FTUS43 KTOP 211100
TAFTOP
TAF
KTOP 211120Z 2112/2212 12001KT P6SM MIFG SKC
      TEMPO 2112/2114 3SM BR
     FM211400 13005KT P6SM FEW250=



000
FTUS43 KTOP 210800 AAB
TAFTOP
TAF AMD
KTOP 210804Z 2108/2206 00000KT P6SM MIFG SKC
      TEMPO 2108/2110 1SM BR
     FM211000 00000KT 3SM BR MIFG SKC
      TEMPO 2110/2113 1/2SM FG SCT002
     FM211400 13003KT P6SM SKC=



000
FTUS43 KTOP 210600 AAA
TAFTOP
TAF AMD
KTOP 210638Z 2107/2206 00000KT 1/2SM FG SKC
      TEMPO 2107/2110 5SM BR MIFG
     FM211000 00000KT 3SM BR MIFG SKC
      TEMPO 2110/2113 1/2SM FG SCT002
     FM211400 13003KT P6SM SKC=



000
FTUS43 KTOP 210500
TAFTOP
TAF
KTOP 210520Z 2106/2206 00000KT P6SM MIFG SKC
     FM211000 00000KT 3SM BR SKC
      TEMPO 2111/2113 1/2SM FG SCT002
     FM211400 13003KT P6SM SKC=



000
FTUS43 KTOP 202300
TAFTOP
TAF
KTOP 202320Z 2100/2124 01004KT P6SM SKC
     FM211000 00000KT 2SM BR SKC
     FM211400 11003KT P6SM SKC=



000
FTUS43 KTOP 201700
TAFTOP
TAF
KTOP 201720Z 2018/2118 01006KT P6SM SKC
     FM211000 00000KT 3SM BR SKC
     FM211400 11003KT P6SM SKC=



    US Dept of Commerce
    National Oceanic and Atmospheric Administration
    National Weather Service
    1325 East West Highway
    Silver Spring, MD 20910
    Page Author: NWS Internet Services Team
Disclaimer
Information Quality
Credits
Glossary
Privacy Policy
Freedom of Information Act (FOIA)
About Us
Career Opportunities